Time,TemperatureF,DewpointF,PressureIn,WindDirection,WindDirectionDegrees,WindSpeedMPH,WindSpeedGustMPH,Humidity,HourlyPrecipIn,Conditions,Clouds,dailyrainin,SolarRadiationWatts/m^2,SoftwareType,DateUTC
2013-05-22 00:02:00,65.0,62.0,-100.00,NNE,24,5.0,9.0,91,0.00,,,0.03,0.000000,,2013-05-22 10:02:00,
2013-05-22 00:12:00,65.0,62.0,-100.00,NNE,24,5.0,9.0,91,0.00,,,0.03,0.000000,,2013-05-22 10:12:00,
2013-05-22 00:22:00,65.0,62.0,-100.00,NNE,24,5.0,9.0,91,0.00,,,0.03,0.000000,,2013-05-22 10:22:00,
2013-05-22 00:32:00,65.0,62.0,-100.00,NNE,24,5.0,9.0,91,0.00,,,0.03,0.000000,,2013-05-22 10:32:00,
2013-05-22 00:52:00,65.0,62.0,-100.00,NNE,25,5.0,10.0,90,0.00,,,0.03,0.000000,,2013-05-22 10:52:00,
2013-05-22 01:02:00,65.0,62.0,-100.00,NNE,25,5.0,10.0,90,0.00,,,0.03,0.000000,,2013-05-22 11:02:00,
2013-05-22 01:11:00,65.0,62.0,-100.00,NNE,25,5.0,10.0,90,0.00,,,0.03,0.000000,,2013-05-22 11:11:00,
2013-05-22 01:21:00,65.0,62.0,-100.00,NNE,25,5.0,10.0,90,0.00,,,0.03,0.000000,,2013-05-22 11:21:00,
2013-05-22 01:32:00,65.0,62.0,-100.00,NNE,25,5.0,10.0,90,0.00,,,0.03,0.000000,,2013-05-22 11:32:00,
2013-05-22 02:02:00,63.0,61.0,-100.00,NNE,25,5.0,9.0,93,0.00,,,0.03,0.000000,,2013-05-22 12:02:00,
2013-05-22 02:12:00,63.0,61.0,-100.00,NNE,25,5.0,9.0,93,0.00,,,0.03,0.000000,,2013-05-22 12:12:00,
2013-05-22 02:22:00,63.0,61.0,-100.00,NNE,25,5.0,9.0,93,0.00,,,0.03,0.000000,,2013-05-22 12:22:00,
2013-05-22 02:32:00,63.0,61.0,-100.00,NNE,25,5.0,9.0,93,0.00,,,0.03,0.000000,,2013-05-22 12:32:00,
2013-05-22 02:52:00,65.0,62.0,-100.00,NNE,20,6.0,9.0,90,0.00,,,0.03,0.000000,,2013-05-22 12:52:00,
2013-05-22 03:01:00,65.0,62.0,-100.00,NNE,20,6.0,9.0,90,0.00,,,0.03,0.000000,,2013-05-22 13:01:00,
2013-05-22 03:11:00,65.0,62.0,-100.00,NNE,20,6.0,9.0,90,0.00,,,0.03,0.000000,,2013-05-22 13:11:00,
2013-05-22 03:22:00,65.0,62.0,-100.00,NNE,20,6.0,9.0,90,0.00,,,0.03,0.000000,,2013-05-22 13:22:00,
2013-05-22 03:31:00,65.0,62.0,-100.00,NNE,20,6.0,9.0,90,0.00,,,0.03,0.000000,,2013-05-22 13:31:00,
2013-05-22 03:52:00,65.0,61.0,-100.00,NNE,26,5.0,9.0,87,0.00,,,0.03,0.000000,,2013-05-22 13:52:00,
2013-05-22 04:02:00,65.0,61.0,-100.00,NNE,26,5.0,9.0,87,0.00,,,0.03,0.000000,,2013-05-22 14:02:00,
2013-05-22 04:11:00,65.0,61.0,-100.00,NNE,26,5.0,9.0,87,0.00,,,0.03,0.000000,,2013-05-22 14:11:00,
2013-05-22 04:21:00,65.0,61.0,-100.00,NNE,26,5.0,9.0,87,0.00,,,0.03,0.000000,,2013-05-22 14:21:00,
2013-05-22 04:32:00,65.0,61.0,-100.00,NNE,26,5.0,9.0,87,0.00,,,0.03,0.000000,,2013-05-22 14:32:00,
2013-05-22 05:01:00,62.0,58.0,-100.00,NNE,21,6.0,10.0,86,0.00,,,0.03,0.000000,,2013-05-22 15:01:00,
2013-05-22 05:11:00,62.0,58.0,-100.00,NNE,21,6.0,10.0,86,0.00,,,0.03,0.000000,,2013-05-22 15:11:00,
2013-05-22 05:21:00,62.0,58.0,-100.00,NNE,21,6.0,10.0,86,0.00,,,0.03,0.000000,,2013-05-22 15:21:00,
2013-05-22 05:32:00,62.0,58.0,-100.00,NNE,21,6.0,10.0,86,0.00,,,0.03,0.000000,,2013-05-22 15:32:00,
2013-05-22 06:03:00,64.0,61.0,-100.00,NNE,23,6.0,10.0,89,0.00,,,0.03,0.000000,,2013-05-22 16:03:00,
2013-05-22 06:12:00,64.0,61.0,-100.00,NNE,23,6.0,10.0,89,0.00,,,0.03,0.000000,,2013-05-22 16:12:00,
2013-05-22 06:23:00,64.0,61.0,-100.00,NNE,23,6.0,10.0,89,0.00,,,0.03,0.000000,,2013-05-22 16:23:00,
2013-05-22 06:32:00,64.0,61.0,-100.00,NNE,23,6.0,10.0,89,0.00,,,0.03,0.000000,,2013-05-22 16:32:00,
2013-05-22 07:02:00,64.0,62.0,-100.00,NNE,26,5.0,10.0,92,0.00,,,0.03,0.000000,,2013-05-22 17:02:00,
2013-05-22 07:11:00,64.0,62.0,-100.00,NNE,26,5.0,10.0,92,0.00,,,0.03,0.000000,,2013-05-22 17:11:00,
2013-05-22 07:22:00,64.0,62.0,-100.00,NNE,26,5.0,10.0,92,0.00,,,0.03,0.000000,,2013-05-22 17:22:00,
2013-05-22 07:32:00,64.0,62.0,-100.00,NNE,26,5.0,10.0,92,0.00,,,0.03,0.000000,,2013-05-22 17:32:00,
2013-05-22 07:53:00,70.0,65.0,-100.00,NNE,22,4.0,10.0,85,0.00,,,0.03,10.000000,,2013-05-22 17:53:00,
2013-05-22 08:02:00,70.0,65.0,-100.00,NNE,22,4.0,10.0,85,0.00,,,0.03,10.000000,,2013-05-22 18:02:00,
2013-05-22 08:14:00,70.0,65.0,-100.00,NNE,22,4.0,10.0,85,0.00,,,0.03,10.000000,,2013-05-22 18:14:00,
2013-05-22 08:22:00,70.0,65.0,-100.00,NNE,22,4.0,10.0,85,0.00,,,0.03,10.000000,,2013-05-22 18:22:00,
2013-05-22 08:33:00,70.0,65.0,-100.00,NNE,22,4.0,10.0,85,0.00,,,0.03,10.000000,,2013-05-22 18:33:00,
2013-05-22 08:52:00,80.0,62.0,-100.00,NW,316,2.0,6.0,55,0.00,,,0.03,143.000000,,2013-05-22 18:52:00,
2013-05-22 09:02:00,80.0,62.0,-100.00,NW,316,2.0,6.0,55,0.00,,,0.03,143.000000,,2013-05-22 19:02:00,
2013-05-22 09:11:00,80.0,62.0,-100.00,NW,316,2.0,6.0,55,0.00,,,0.03,143.000000,,2013-05-22 19:11:00,
2013-05-22 09:21:00,80.0,62.0,-100.00,NW,316,2.0,6.0,55,0.00,,,0.03,143.000000,,2013-05-22 19:21:00,
2013-05-22 09:31:00,80.0,62.0,-100.00,NW,316,2.0,6.0,55,0.00,,,0.03,143.000000,,2013-05-22 19:31:00,
2013-05-22 10:02:00,85.0,64.0,-100.00,SSE,153,5.0,11.0,50,0.00,,,0.03,557.000000,,2013-05-22 20:02:00,
2013-05-22 10:11:00,85.0,64.0,-100.00,SSE,153,5.0,11.0,50,0.00,,,0.03,557.000000,,2013-05-22 20:11:00,
2013-05-22 10:21:00,85.0,64.0,-100.00,SSE,153,5.0,11.0,50,0.00,,,0.03,557.000000,,2013-05-22 20:21:00,
2013-05-22 10:32:00,85.0,64.0,-100.00,SSE,153,5.0,11.0,50,0.00,,,0.03,557.000000,,2013-05-22 20:32:00,
2013-05-22 10:52:00,82.0,69.0,-100.00,SSW,203,6.0,13.0,65,0.00,,,0.03,863.000000,,2013-05-22 20:52:00,
2013-05-22 11:01:00,82.0,69.0,-100.00,SSW,203,6.0,13.0,65,0.00,,,0.03,863.000000,,2013-05-22 21:01:00,
2013-05-22 11:11:00,82.0,69.0,-100.00,SSW,203,6.0,13.0,65,0.00,,,0.03,863.000000,,2013-05-22 21:11:00,
2013-05-22 11:21:00,82.0,69.0,-100.00,SSW,203,6.0,13.0,65,0.00,,,0.03,863.000000,,2013-05-22 21:21:00,
2013-05-22 11:32:00,82.0,69.0,-100.00,SSW,203,6.0,13.0,65,0.00,,,0.03,863.000000,,2013-05-22 21:32:00,
2013-05-22 12:03:00,82.0,67.0,-100.00,SW,218,7.0,15.0,61,0.00,,,0.03,497.000000,,2013-05-22 22:03:00,
2013-05-22 12:12:00,82.0,67.0,-100.00,SW,218,7.0,15.0,61,0.00,,,0.03,497.000000,,2013-05-22 22:12:00,
2013-05-22 12:22:00,82.0,67.0,-100.00,SW,218,7.0,15.0,61,0.00,,,0.03,497.000000,,2013-05-22 22:22:00,
2013-05-22 12:33:00,82.0,67.0,-100.00,SW,218,7.0,15.0,61,0.00,,,0.03,497.000000,,2013-05-22 22:33:00,
2013-05-22 13:02:00,82.0,67.0,-100.00,SW,226,6.0,17.0,61,0.00,,,0.03,922.000000,,2013-05-22 23:02:00,
2013-05-22 13:12:00,82.0,67.0,-100.00,SW,226,6.0,17.0,61,0.00,,,0.03,922.000000,,2013-05-22 23:12:00,
2013-05-22 13:21:00,82.0,67.0,-100.00,SW,226,6.0,17.0,61,0.00,,,0.03,922.000000,,2013-05-22 23:21:00,
2013-05-22 13:32:00,82.0,67.0,-100.00,SW,226,6.0,17.0,61,0.00,,,0.03,922.000000,,2013-05-22 23:32:00,
2013-05-22 14:01:00,85.0,66.0,-100.00,SSE,159,5.0,14.0,54,0.00,,,0.03,1070.000000,,2013-05-23 00:01:00,
2013-05-22 14:11:00,85.0,66.0,-100.00,SSE,159,5.0,14.0,54,0.00,,,0.03,1070.000000,,2013-05-23 00:11:00,
2013-05-22 14:21:00,85.0,66.0,-100.00,SSE,159,5.0,14.0,54,0.00,,,0.03,1070.000000,,2013-05-23 00:21:00,
2013-05-22 14:31:00,85.0,66.0,-100.00,SSE,159,5.0,14.0,54,0.00,,,0.03,1070.000000,,2013-05-23 00:31:00,
2013-05-22 14:52:00,86.0,66.0,-100.00,SSE,168,7.0,16.0,52,0.00,,,0.03,1195.000000,,2013-05-23 00:52:00,
2013-05-22 15:01:00,86.0,66.0,-100.00,SSE,168,7.0,16.0,52,0.00,,,0.03,1195.000000,,2013-05-23 01:01:00,
2013-05-22 15:11:00,86.0,66.0,-100.00,SSE,168,7.0,16.0,52,0.00,,,0.03,1195.000000,,2013-05-23 01:11:00,
2013-05-22 15:21:00,86.0,66.0,-100.00,SSE,168,7.0,16.0,52,0.00,,,0.03,1195.000000,,2013-05-23 01:21:00,
2013-05-22 15:32:00,86.0,66.0,-100.00,SSE,168,7.0,16.0,52,0.00,,,0.03,1195.000000,,2013-05-23 01:32:00,
2013-05-22 16:01:00,85.0,62.0,-100.00,SSW,205,7.0,15.0,47,0.00,,,0.03,1202.000000,,2013-05-23 02:01:00,
2013-05-22 16:11:00,85.0,62.0,-100.00,SSW,205,7.0,15.0,47,0.00,,,0.03,1202.000000,,2013-05-23 02:11:00,
2013-05-22 16:21:00,85.0,62.0,-100.00,SSW,205,7.0,15.0,47,0.00,,,0.03,1202.000000,,2013-05-23 02:21:00,
2013-05-22 16:31:00,85.0,62.0,-100.00,SSW,205,7.0,15.0,47,0.00,,,0.03,1202.000000,,2013-05-23 02:31:00,
2013-05-22 17:01:00,82.0,64.0,-100.00,SSW,193,4.0,15.0,54,0.00,,,0.02,1073.000000,,2013-05-23 03:01:00,
2013-05-22 17:11:00,82.0,64.0,-100.00,SSW,193,4.0,15.0,54,0.00,,,0.02,1073.000000,,2013-05-23 03:11:00,
2013-05-22 17:21:00,82.0,64.0,-100.00,SSW,193,4.0,15.0,54,0.00,,,0.02,1073.000000,,2013-05-23 03:21:00,
2013-05-22 17:33:00,82.0,64.0,-100.00,SSW,193,4.0,15.0,54,0.00,,,0.02,1073.000000,,2013-05-23 03:33:00,
2013-05-22 17:53:00,80.0,65.0,-100.00,SW,225,3.0,10.0,61,0.00,,,0.01,260.000000,,2013-05-23 03:53:00,
2013-05-22 18:03:00,80.0,65.0,-100.00,SW,225,3.0,10.0,61,0.00,,,0.01,260.000000,,2013-05-23 04:03:00,
2013-05-22 18:12:00,80.0,65.0,-100.00,SW,225,3.0,10.0,61,0.00,,,0.01,260.000000,,2013-05-23 04:12:00,
2013-05-22 18:22:00,80.0,65.0,-100.00,SW,225,3.0,10.0,61,0.00,,,0.01,260.000000,,2013-05-23 04:22:00,
2013-05-22 18:33:00,80.0,65.0,-100.00,SW,225,3.0,10.0,61,0.00,,,0.01,260.000000,,2013-05-23 04:33:00,
2013-05-22 18:52:00,77.0,66.0,-100.00,SW,215,3.0,7.0,69,0.00,,,0.01,122.000000,,2013-05-23 04:52:00,
2013-05-22 19:02:00,77.0,66.0,-100.00,SW,215,3.0,7.0,69,0.00,,,0.01,122.000000,,2013-05-23 05:02:00,
2013-05-22 19:11:00,77.0,66.0,-100.00,SW,215,3.0,7.0,69,0.00,,,0.01,122.000000,,2013-05-23 05:11:00,
2013-05-22 19:21:00,77.0,66.0,-100.00,SW,215,3.0,7.0,69,0.00,,,0.01,122.000000,,2013-05-23 05:21:00,
2013-05-22 19:32:00,77.0,66.0,-100.00,SW,215,3.0,7.0,69,0.00,,,0.01,122.000000,,2013-05-23 05:32:00,
2013-05-22 19:52:00,71.0,65.0,-100.00,NNE,19,4.0,6.0,82,0.00,,,0.01,79.000000,,2013-05-23 05:52:00,
2013-05-22 20:02:00,71.0,65.0,-100.00,NNE,19,4.0,6.0,82,0.00,,,0.01,79.000000,,2013-05-23 06:02:00,
2013-05-22 20:12:00,71.0,65.0,-100.00,NNE,19,4.0,6.0,82,0.00,,,0.01,79.000000,,2013-05-23 06:12:00,
2013-05-22 20:21:00,71.0,65.0,-100.00,NNE,19,4.0,6.0,82,0.00,,,0.01,79.000000,,2013-05-23 06:21:00,
2013-05-22 20:31:00,71.0,65.0,-100.00,NNE,19,4.0,6.0,82,0.00,,,0.01,79.000000,,2013-05-23 06:31:00,
2013-05-22 20:52:00,70.0,66.0,-100.00,NNE,22,5.0,8.0,87,0.00,,,0.00,15.000000,,2013-05-23 06:52:00,
2013-05-22 21:02:00,70.0,66.0,-100.00,NNE,22,5.0,8.0,87,0.00,,,0.00,15.000000,,2013-05-23 07:02:00,
2013-05-22 21:11:00,70.0,66.0,-100.00,NNE,22,5.0,8.0,87,0.00,,,0.00,15.000000,,2013-05-23 07:11:00,
2013-05-22 21:21:00,70.0,66.0,-100.00,NNE,22,5.0,8.0,87,0.00,,,0.00,15.000000,,2013-05-23 07:21:00,
2013-05-22 21:31:00,70.0,66.0,-100.00,NNE,22,5.0,8.0,87,0.00,,,0.00,15.000000,,2013-05-23 07:31:00,
2013-05-22 22:02:00,68.0,65.0,-100.00,North,8,4.0,8.0,90,0.00,,,0.00,0.000000,,2013-05-23 08:02:00,
2013-05-22 22:11:00,68.0,65.0,-100.00,North,8,4.0,8.0,90,0.00,,,0.00,0.000000,,2013-05-23 08:11:00,
2013-05-22 22:21:00,68.0,65.0,-100.00,North,8,4.0,8.0,90,0.00,,,0.00,0.000000,,2013-05-23 08:21:00,
2013-05-22 22:31:00,68.0,65.0,-100.00,North,8,4.0,8.0,90,0.00,,,0.00,0.000000,,2013-05-23 08:31:00,
2013-05-22 22:52:00,68.0,65.0,-100.00,NNE,16,5.0,10.0,90,0.00,,,0.00,0.000000,,2013-05-23 08:52:00,
2013-05-22 23:01:00,68.0,65.0,-100.00,NNE,16,5.0,10.0,90,0.00,,,0.00,0.000000,,2013-05-23 09:01:00,
2013-05-22 23:11:00,68.0,65.0,-100.00,NNE,16,5.0,10.0,90,0.00,,,0.00,0.000000,,2013-05-23 09:11:00,
2013-05-22 23:21:00,68.0,65.0,-100.00,NNE,16,5.0,10.0,90,0.00,,,0.00,0.000000,,2013-05-23 09:21:00,
2013-05-22 23:32:00,68.0,65.0,-100.00,NNE,16,5.0,10.0,90,0.00,,,0.00,0.000000,,2013-05-23 09:32:00,
2013-05-22 23:53:00,68.0,64.0,-100.00,NNE,14,5.0,10.0,88,0.00,,,0.00,0.000000,,2013-05-23 09:53:00,